createdAt,value
2018-11-22T12:17:55.033Z,72.39
2018-11-22T12:20:25.393Z,71.11
2018-11-22T12:22:56.867Z,70.82
2018-11-22T12:25:28.924Z,71.09
2018-11-22T12:28:06.349Z,71.57
2018-11-22T12:30:37.136Z,71.52
2018-11-22T12:33:12.355Z,70.90
2018-11-22T12:35:47.710Z,70.62
2018-11-22T12:38:23.153Z,70.54
2018-11-22T12:40:54.014Z,71.58
2018-11-22T12:46:25.664Z,70.52
2018-11-22T12:48:57.141Z,71.55
2018-11-22T12:51:27.755Z,70.77
2018-11-22T12:54:47.027Z,69.95
2018-11-22T12:57:17.587Z,69.48
2018-11-22T12:59:47.785Z,69.33
2018-11-22T13:02:19.534Z,68.76
2018-11-22T13:04:53.888Z,69.03
2018-11-22T13:07:23.993Z,69.43
2018-11-22T13:09:53.972Z,69.41
2018-11-22T13:12:26.987Z,69.83
2018-11-22T13:14:57.850Z,70.25
2018-11-22T13:17:44.655Z,70.29
2018-11-22T13:20:17.005Z,70.17
2018-11-22T13:22:46.997Z,69.12
2018-11-22T13:25:18.379Z,69.54
2018-11-22T13:27:48.347Z,69.35
2018-11-22T13:30:24.268Z,68.98
2018-11-22T13:32:54.952Z,69.00
2018-11-22T13:35:24.963Z,68.99
2018-11-22T13:37:55.747Z,69.90
2018-11-22T13:40:28.009Z,69.27
2018-11-22T13:42:58.090Z,69.69
2018-11-22T13:45:28.944Z,69.14
2018-11-22T13:47:59.539Z,67.94
2018-11-22T13:50:30.816Z,68.29
2018-11-22T13:53:20.412Z,67.67
2018-11-22T13:55:52.113Z,69.06
2018-11-22T13:58:21.984Z,69.59
2018-11-22T14:04:23.415Z,69.17
2018-11-22T14:06:53.401Z,69.92
2018-11-22T14:09:23.486Z,68.94
2018-11-22T14:12:02.966Z,69.62
2018-11-22T14:14:33.852Z,69.82
2018-11-22T14:17:03.922Z,69.41
2018-11-22T14:19:36.181Z,70.34
2018-11-22T14:22:06.895Z,69.92
2018-11-22T14:24:36.834Z,70.08
2018-11-22T14:27:06.952Z,69.61
2018-11-22T14:29:40.203Z,70.20
2018-11-22T14:35:03.799Z,70.58
2018-11-22T14:37:33.655Z,71.25
2018-11-22T14:40:05.883Z,71.72
2018-11-22T14:44:57.816Z,72.34
2018-11-22T14:47:27.688Z,71.92
2018-11-22T14:49:58.974Z,72.60
2018-11-22T14:52:29.035Z,72.51
2018-11-22T14:55:00.643Z,72.49
2018-11-22T14:57:30.511Z,72.86
2018-11-22T15:00:00.319Z,72.63
2018-11-22T15:02:30.232Z,73.13
2018-11-22T15:05:00.691Z,72.97
2018-11-22T15:07:30.678Z,73.14
2018-11-22T15:10:00.591Z,74.08
2018-11-22T15:12:31.260Z,74.43
2018-11-22T15:15:01.247Z,75.11
2018-11-22T15:17:31.206Z,75.86
2018-11-22T15:20:08.031Z,76.17
2018-11-22T15:22:38.501Z,76.62
2018-11-22T15:25:09.586Z,77.29
2018-11-22T15:27:39.769Z,77.60
2018-11-22T15:32:38.501Z,78.36
2018-11-22T15:35:10.569Z,78.28
2018-11-22T15:37:40.861Z,78.55
2018-11-22T15:40:15.175Z,79.81
2018-11-22T15:42:45.813Z,79.91
2018-11-22T15:45:17.119Z,79.80
2018-11-22T15:47:48.514Z,80.17
2018-11-22T15:50:21.487Z,80.25
2018-11-22T15:52:51.379Z,80.45
2018-11-22T15:55:22.724Z,80.80
2018-11-22T15:57:54.201Z,80.54
2018-11-22T16:00:27.381Z,80.54
2018-11-22T16:02:58.928Z,80.91
2018-11-22T16:05:29.964Z,80.96
2018-11-22T16:07:59.939Z,81.00
2018-11-22T16:10:33.283Z,81.58
2018-11-22T16:13:05.889Z,82.13
2018-11-22T16:16:08.161Z,82.13
2018-11-22T16:21:41.526Z,82.13
2018-11-22T16:24:12.891Z,82.49
2018-11-22T16:26:42.086Z,82.33
2018-11-22T16:32:23.549Z,83.24
2018-11-22T16:38:20.152Z,83.86
2018-11-22T16:40:51.157Z,84.01
2018-11-22T16:43:21.148Z,83.89
2018-11-22T16:45:52.606Z,84.09
2018-11-22T16:48:27.794Z,84.37
2018-11-22T16:51:06.766Z,84.43
2018-11-22T16:53:36.674Z,84.20
2018-11-22T16:56:06.901Z,84.35
2018-11-22T16:58:36.894Z,84.58
2018-11-22T17:01:07.862Z,84.92
2018-11-22T17:03:38.131Z,85.36
2018-11-22T17:06:08.198Z,85.09
2018-11-22T17:08:38.218Z,85.04
2018-11-22T17:11:08.289Z,85.50
2018-11-22T17:13:38.400Z,85.64
2018-11-22T17:16:08.371Z,85.79
2018-11-22T17:18:38.378Z,85.84
2018-11-22T17:21:10.299Z,86.17
2018-11-22T17:23:40.353Z,85.73
2018-11-22T17:26:10.230Z,85.79
2018-11-22T17:28:40.191Z,85.72
2018-11-22T17:31:10.183Z,86.31
2018-11-22T17:33:40.273Z,86.45
2018-11-22T17:36:15.050Z,86.72
2018-11-22T17:38:45.057Z,86.84
2018-11-22T17:41:15.463Z,86.70
2018-11-22T17:49:47.915Z,86.52
2018-11-22T17:52:17.938Z,87.02
2018-11-22T17:54:47.948Z,87.22
2018-11-22T17:57:17.795Z,87.73
2018-11-22T17:59:47.727Z,87.71
2018-11-22T18:02:17.635Z,87.57
2018-11-22T18:04:47.563Z,87.78
2018-11-22T18:07:17.330Z,88.11
2018-11-22T18:09:47.475Z,88.60
2018-11-22T18:12:17.457Z,88.71
2018-11-22T18:14:47.784Z,88.52
2018-11-22T18:17:17.621Z,89.01
2018-11-22T18:19:48.306Z,89.12
2018-11-22T18:22:18.509Z,89.39
2018-11-22T18:24:49.080Z,89.98
2018-11-22T18:27:20.507Z,89.67
2018-11-22T18:29:54.882Z,89.61
2018-11-22T18:32:24.946Z,89.81
2018-11-22T18:34:54.941Z,89.21
2018-11-22T18:37:25.445Z,89.42
2018-11-22T18:39:55.454Z,89.68
2018-11-22T18:42:25.600Z,89.71
2018-11-22T18:44:56.239Z,89.60
2018-11-22T18:47:26.230Z,89.55
2018-11-22T18:49:56.148Z,89.73
2018-11-22T18:52:26.057Z,90.04
2018-11-22T18:54:56.353Z,89.82
2018-11-22T18:57:27.013Z,90.22
2018-11-22T18:59:57.212Z,89.83
2018-11-22T19:02:27.564Z,90.56
2018-11-22T19:04:57.553Z,90.76
2018-11-22T19:07:27.499Z,90.95
2018-11-22T19:09:57.553Z,91.04
2018-11-22T19:12:27.536Z,91.21
2018-11-22T19:14:58.507Z,91.47
2018-11-22T19:17:28.832Z,91.30
2018-11-22T19:19:59.528Z,91.55
2018-11-22T19:22:29.709Z,91.51
2018-11-22T19:25:01.598Z,91.79
2018-11-22T19:27:37.972Z,92.20
2018-11-22T19:30:14.228Z,92.43
2018-11-22T19:32:45.091Z,92.62
2018-11-22T19:35:18.724Z,92.55
2018-11-22T19:37:49.172Z,92.68
2018-11-22T19:40:25.287Z,93.00
2018-11-22T19:42:56.408Z,92.97
2018-11-22T19:45:29.212Z,93.48
2018-11-22T19:51:28.682Z,93.57
2018-11-22T19:54:38.823Z,93.72
2018-11-22T19:57:35.044Z,95.02
2018-11-22T20:01:13.370Z,94.56
2018-11-22T20:03:44.761Z,94.61
2018-11-22T20:06:16.451Z,94.70
2018-11-22T20:11:31.198Z,95.74
2018-11-22T20:14:06.031Z,96.25
2018-11-22T20:16:37.834Z,96.24
2018-11-22T20:19:09.787Z,96.16
2018-11-22T20:21:41.159Z,96.62
2018-11-22T20:24:13.004Z,96.26
2018-11-22T20:26:45.095Z,96.69
2018-11-22T20:29:16.680Z,96.98
2018-11-22T20:31:50.426Z,97.14
2018-11-22T20:34:20.435Z,97.45
2018-11-22T20:37:07.206Z,97.81
2018-11-22T20:39:40.965Z,97.68
2018-11-22T20:42:11.138Z,97.73
2018-11-22T20:45:54.918Z,98.17
2018-11-22T20:48:25.113Z,98.21
2018-11-22T20:50:56.045Z,97.41
2018-11-22T20:53:26.569Z,96.96
2018-11-22T20:59:06.052Z,96.24
2018-11-22T21:01:51.679Z,95.75
2018-11-22T21:04:19.587Z,96.25
2018-11-22T21:06:52.284Z,95.93
2018-11-22T21:09:23.339Z,96.16
2018-11-22T21:11:54.873Z,95.85
2018-11-22T21:14:34.393Z,95.73
2018-11-22T21:17:07.353Z,95.75
2018-11-22T21:19:45.597Z,95.64
2018-11-22T21:22:17.085Z,95.61
2018-11-22T21:24:47.578Z,96.11
2018-11-22T21:27:23.424Z,96.26
2018-11-22T21:30:00.796Z,96.82
2018-11-22T21:32:32.125Z,96.63
2018-11-22T21:35:03.031Z,96.43
2018-11-22T21:37:33.842Z,97.03
2018-11-22T21:40:05.630Z,97.07
2018-11-22T21:42:36.680Z,97.05
2018-11-22T21:45:21.040Z,96.55
2018-11-22T21:47:51.528Z,96.97
2018-11-22T21:50:23.152Z,96.95
2018-11-22T21:52:53.497Z,97.03
2018-11-22T21:55:26.206Z,96.58
2018-11-22T21:57:57.519Z,96.18
2018-11-22T22:00:35.468Z,96.11
2018-11-22T22:03:07.020Z,96.22
2018-11-22T22:05:36.957Z,97.08
2018-11-22T22:08:08.280Z,97.30
2018-11-22T22:10:38.475Z,97.50
2018-11-22T22:13:08.358Z,97.99
2018-11-22T22:15:39.359Z,98.09
2018-11-22T22:18:09.945Z,97.24
2018-11-22T22:20:39.895Z,96.86
2018-11-22T22:23:13.541Z,97.11
2018-11-22T22:25:44.877Z,97.26
2018-11-22T22:28:15.547Z,96.70
2018-11-22T22:30:45.848Z,97.02
2018-11-22T22:33:16.997Z,96.87
2018-11-22T22:35:48.188Z,96.30
2018-11-22T22:38:18.308Z,96.75
2018-11-22T22:40:49.704Z,97.34
2018-11-22T22:43:20.290Z,97.19
2018-11-22T22:45:51.544Z,97.32
2018-11-22T22:48:22.751Z,97.64
2018-11-22T22:50:52.979Z,97.76
2018-11-22T22:53:23.327Z,98.33
2018-11-22T22:55:53.352Z,97.96
2018-11-22T22:58:24.059Z,97.92
2018-11-22T23:00:54.249Z,97.73
2018-11-22T23:03:24.268Z,97.95
2018-11-22T23:05:54.316Z,98.37
2018-11-22T23:08:25.969Z,98.59
2018-11-22T23:10:55.986Z,98.42
2018-11-22T23:13:27.268Z,98.42
2018-11-22T23:16:01.425Z,98.12
2018-11-22T23:18:31.588Z,98.44
2018-11-22T23:21:03.049Z,98.06
2018-11-22T23:23:38.658Z,98.09
2018-11-22T23:26:09.018Z,97.50
2018-11-22T23:28:39.106Z,97.51
2018-11-22T23:31:08.991Z,97.89
2018-11-22T23:33:38.811Z,98.39
2018-11-22T23:36:08.559Z,98.17
2018-11-22T23:38:38.472Z,97.76
2018-11-22T23:41:08.610Z,97.25
2018-11-22T23:43:39.237Z,97.46
2018-11-22T23:49:12.966Z,98.36
2018-11-22T23:51:44.070Z,98.57
2018-11-22T23:54:14.268Z,98.68
2018-11-22T23:56:46.873Z,98.85
2018-11-22T23:59:18.949Z,98.66
